sensor_id;sensor_type;location;lat;lon;timestamp;temperature;humidity
37530;DHT22;23374;52.758;6.872;2022-11-25T00:01:54;7.60;1.00
37530;DHT22;23374;52.758;6.872;2022-11-25T00:04:14;7.70;1.00
37530;DHT22;23374;52.758;6.872;2022-11-25T00:06:35;7.70;1.00
37530;DHT22;23374;52.758;6.872;2022-11-25T00:09:10;7.70;1.00
37530;DHT22;23374;52.758;6.872;2022-11-25T00:11:34;7.60;1.00
37530;DHT22;23374;52.758;6.872;2022-11-25T00:13:56;7.70;1.00
37530;DHT22;23374;52.758;6.872;2022-11-25T00:16:20;7.60;1.00
37530;DHT22;23374;52.758;6.872;2022-11-25T00:18:46;7.60;1.00
37530;DHT22;23374;52.758;6.872;2022-11-25T00:21:12;7.60;1.00
37530;DHT22;23374;52.758;6.872;2022-11-25T00:23:33;7.70;1.00
37530;DHT22;23374;52.758;6.872;2022-11-25T00:25:53;7.70;1.00
37530;DHT22;23374;52.758;6.872;2022-11-25T00:28:13;7.70;1.00
37530;DHT22;23374;52.758;6.872;2022-11-25T00:30:34;7.70;1.00
37530;DHT22;23374;52.758;6.872;2022-11-25T00:32:54;7.70;1.00
37530;DHT22;23374;52.758;6.872;2022-11-25T00:35:14;7.70;1.00
37530;DHT22;23374;52.758;6.872;2022-11-25T00:37:35;7.80;1.00
37530;DHT22;23374;52.758;6.872;2022-11-25T00:39:55;7.80;1.00
37530;DHT22;23374;52.758;6.872;2022-11-25T00:42:15;7.80;1.00
37530;DHT22;23374;52.758;6.872;2022-11-25T00:44:54;7.80;1.00
37530;DHT22;23374;52.758;6.872;2022-11-25T00:47:17;7.80;1.00
37530;DHT22;23374;52.758;6.872;2022-11-25T00:49:41;7.80;1.00
37530;DHT22;23374;52.758;6.872;2022-11-25T00:52:03;7.80;1.00
37530;DHT22;23374;52.758;6.872;2022-11-25T00:54:24;7.80;1.00
37530;DHT22;23374;52.758;6.872;2022-11-25T00:56:44;7.80;1.00
37530;DHT22;23374;52.758;6.872;2022-11-25T00:59:05;7.80;1.00
37530;DHT22;23374;52.758;6.872;2022-11-25T01:01:25;7.80;1.00
37530;DHT22;23374;52.758;6.872;2022-11-25T01:03:49;7.80;1.00
37530;DHT22;23374;52.758;6.872;2022-11-25T01:06:10;7.80;1.00
37530;DHT22;23374;52.758;6.872;2022-11-25T01:08:32;7.80;1.00
37530;DHT22;23374;52.758;6.872;2022-11-25T01:11:01;7.80;1.00
37530;DHT22;23374;52.758;6.872;2022-11-25T01:13:21;7.80;1.00
37530;DHT22;23374;52.758;6.872;2022-11-25T01:15:42;7.80;1.00
37530;DHT22;23374;52.758;6.872;2022-11-25T01:18:02;7.80;1.00
37530;DHT22;23374;52.758;6.872;2022-11-25T01:20:22;7.80;1.00
37530;DHT22;23374;52.758;6.872;2022-11-25T01:22:42;7.80;1.00
37530;DHT22;23374;52.758;6.872;2022-11-25T01:25:03;7.80;1.00
37530;DHT22;23374;52.758;6.872;2022-11-25T01:27:23;7.80;1.00
37530;DHT22;23374;52.758;6.872;2022-11-25T01:29:44;7.80;1.00
37530;DHT22;23374;52.758;6.872;2022-11-25T01:32:04;7.80;1.00
37530;DHT22;23374;52.758;6.872;2022-11-25T01:34:26;7.90;1.00
37530;DHT22;23374;52.758;6.872;2022-11-25T01:36:47;7.90;1.00
37530;DHT22;23374;52.758;6.872;2022-11-25T01:39:20;7.80;1.00
37530;DHT22;23374;52.758;6.872;2022-11-25T01:41:41;7.80;1.00
37530;DHT22;23374;52.758;6.872;2022-11-25T01:44:27;7.80;1.00
37530;DHT22;23374;52.758;6.872;2022-11-25T01:47:15;7.80;1.00
37530;DHT22;23374;52.758;6.872;2022-11-25T01:50:03;7.90;1.00
37530;DHT22;23374;52.758;6.872;2022-11-25T01:52:41;7.90;1.00
37530;DHT22;23374;52.758;6.872;2022-11-25T01:55:41;7.90;1.00
37530;DHT22;23374;52.758;6.872;2022-11-25T01:58:11;7.90;1.00
37530;DHT22;23374;52.758;6.872;2022-11-25T02:00:33;7.90;1.00
37530;DHT22;23374;52.758;6.872;2022-11-25T02:02:55;7.90;1.00
37530;DHT22;23374;52.758;6.872;2022-11-25T02:06:06;7.90;1.00
37530;DHT22;23374;52.758;6.872;2022-11-25T02:08:28;7.90;1.00
37530;DHT22;23374;52.758;6.872;2022-11-25T02:10:51;7.90;1.00
37530;DHT22;23374;52.758;6.872;2022-11-25T02:13:12;7.90;1.00
37530;DHT22;23374;52.758;6.872;2022-11-25T02:15:33;7.90;1.00
37530;DHT22;23374;52.758;6.872;2022-11-25T02:17:54;7.90;1.00
37530;DHT22;23374;52.758;6.872;2022-11-25T02:20:21;7.90;1.00
37530;DHT22;23374;52.758;6.872;2022-11-25T02:29:29;7.80;1.00
37530;DHT22;23374;52.758;6.872;2022-11-25T02:31:50;7.80;99.90
37530;DHT22;23374;52.758;6.872;2022-11-25T02:34:10;7.70;99.90
37530;DHT22;23374;52.758;6.872;2022-11-25T02:36:31;7.70;99.90
37530;DHT22;23374;52.758;6.872;2022-11-25T02:38:55;7.70;99.90
37530;DHT22;23374;52.758;6.872;2022-11-25T02:42:19;7.70;99.90
37530;DHT22;23374;52.758;6.872;2022-11-25T02:44:40;7.70;99.90
37530;DHT22;23374;52.758;6.872;2022-11-25T02:47:00;7.70;99.90
37530;DHT22;23374;52.758;6.872;2022-11-25T02:49:20;7.70;99.90
37530;DHT22;23374;52.758;6.872;2022-11-25T02:51:44;7.60;99.90
37530;DHT22;23374;52.758;6.872;2022-11-25T02:54:06;7.70;99.90
37530;DHT22;23374;52.758;6.872;2022-11-25T02:56:31;7.60;99.90
37530;DHT22;23374;52.758;6.872;2022-11-25T02:58:52;7.60;99.90
37530;DHT22;23374;52.758;6.872;2022-11-25T03:01:13;7.60;99.90
37530;DHT22;23374;52.758;6.872;2022-11-25T03:03:33;7.70;99.90
37530;DHT22;23374;52.758;6.872;2022-11-25T03:05:53;7.60;99.90
37530;DHT22;23374;52.758;6.872;2022-11-25T03:08:13;7.60;99.90
37530;DHT22;23374;52.758;6.872;2022-11-25T03:10:33;7.60;99.90
37530;DHT22;23374;52.758;6.872;2022-11-25T03:12:53;7.60;99.90
37530;DHT22;23374;52.758;6.872;2022-11-25T03:15:14;7.60;99.90
37530;DHT22;23374;52.758;6.872;2022-11-25T03:17:35;7.60;99.90
37530;DHT22;23374;52.758;6.872;2022-11-25T03:19:56;7.70;99.90
37530;DHT22;23374;52.758;6.872;2022-11-25T03:22:16;7.70;99.90
37530;DHT22;23374;52.758;6.872;2022-11-25T03:24:36;7.70;99.90
37530;DHT22;23374;52.758;6.872;2022-11-25T03:26:57;7.70;99.90
37530;DHT22;23374;52.758;6.872;2022-11-25T03:29:17;7.70;99.90
37530;DHT22;23374;52.758;6.872;2022-11-25T03:31:38;7.70;99.90
37530;DHT22;23374;52.758;6.872;2022-11-25T03:33:59;7.70;99.90
37530;DHT22;23374;52.758;6.872;2022-11-25T03:36:20;7.70;99.90
37530;DHT22;23374;52.758;6.872;2022-11-25T03:38:40;7.70;99.90
37530;DHT22;23374;52.758;6.872;2022-11-25T03:41:00;7.70;99.90
37530;DHT22;23374;52.758;6.872;2022-11-25T03:43:20;7.70;99.90
37530;DHT22;23374;52.758;6.872;2022-11-25T03:45:40;7.70;99.90
37530;DHT22;23374;52.758;6.872;2022-11-25T03:48:01;7.80;99.90
37530;DHT22;23374;52.758;6.872;2022-11-25T03:50:21;7.80;99.90
37530;DHT22;23374;52.758;6.872;2022-11-25T03:52:41;7.80;99.90
37530;DHT22;23374;52.758;6.872;2022-11-25T03:55:02;7.70;99.90
37530;DHT22;23374;52.758;6.872;2022-11-25T03:57:22;7.80;99.90
37530;DHT22;23374;52.758;6.872;2022-11-25T03:59:42;7.80;99.90
37530;DHT22;23374;52.758;6.872;2022-11-25T04:02:03;7.80;99.90
37530;DHT22;23374;52.758;6.872;2022-11-25T04:04:24;7.80;99.90
37530;DHT22;23374;52.758;6.872;2022-11-25T04:06:44;7.80;99.90
37530;DHT22;23374;52.758;6.872;2022-11-25T04:09:08;7.80;99.90
37530;DHT22;23374;52.758;6.872;2022-11-25T04:11:29;7.80;99.90
37530;DHT22;23374;52.758;6.872;2022-11-25T04:14:08;7.80;99.90
37530;DHT22;23374;52.758;6.872;2022-11-25T04:16:28;7.80;99.90
37530;DHT22;23374;52.758;6.872;2022-11-25T04:18:48;7.80;99.90
37530;DHT22;23374;52.758;6.872;2022-11-25T04:21:08;7.80;99.90
37530;DHT22;23374;52.758;6.872;2022-11-25T04:23:28;7.80;99.90
37530;DHT22;23374;52.758;6.872;2022-11-25T04:25:49;7.80;99.90
37530;DHT22;23374;52.758;6.872;2022-11-25T04:28:10;7.80;99.90
37530;DHT22;23374;52.758;6.872;2022-11-25T04:30:30;7.80;99.90
37530;DHT22;23374;52.758;6.872;2022-11-25T04:32:51;7.80;99.90
37530;DHT22;23374;52.758;6.872;2022-11-25T04:35:11;7.90;99.90
37530;DHT22;23374;52.758;6.872;2022-11-25T04:37:31;7.90;99.90
37530;DHT22;23374;52.758;6.872;2022-11-25T04:39:51;7.90;99.90
37530;DHT22;23374;52.758;6.872;2022-11-25T04:42:11;7.90;99.90
37530;DHT22;23374;52.758;6.872;2022-11-25T04:44:50;7.90;99.90
37530;DHT22;23374;52.758;6.872;2022-11-25T04:47:10;7.90;99.90
37530;DHT22;23374;52.758;6.872;2022-11-25T04:49:30;7.90;99.90
37530;DHT22;23374;52.758;6.872;2022-11-25T04:51:50;7.90;99.90
37530;DHT22;23374;52.758;6.872;2022-11-25T04:54:10;7.90;99.90
37530;DHT22;23374;52.758;6.872;2022-11-25T04:56:31;8.00;99.90
37530;DHT22;23374;52.758;6.872;2022-11-25T04:58:51;8.00;99.90
37530;DHT22;23374;52.758;6.872;2022-11-25T05:01:30;8.00;99.90
37530;DHT22;23374;52.758;6.872;2022-11-25T05:03:50;8.00;99.90
37530;DHT22;23374;52.758;6.872;2022-11-25T05:06:10;8.00;99.90
37530;DHT22;23374;52.758;6.872;2022-11-25T05:08:30;8.00;99.90
37530;DHT22;23374;52.758;6.872;2022-11-25T05:10:51;8.00;99.90
37530;DHT22;23374;52.758;6.872;2022-11-25T05:13:11;8.00;99.90
37530;DHT22;23374;52.758;6.872;2022-11-25T05:15:31;8.10;99.90
37530;DHT22;23374;52.758;6.872;2022-11-25T05:17:51;8.10;99.90
37530;DHT22;23374;52.758;6.872;2022-11-25T05:20:12;8.10;99.90
37530;DHT22;23374;52.758;6.872;2022-11-25T05:22:33;8.10;99.90
37530;DHT22;23374;52.758;6.872;2022-11-25T05:24:54;8.10;99.90
37530;DHT22;23374;52.758;6.872;2022-11-25T05:27:15;8.10;99.90
37530;DHT22;23374;52.758;6.872;2022-11-25T05:29:36;8.10;99.90
37530;DHT22;23374;52.758;6.872;2022-11-25T05:31:57;8.10;99.90
37530;DHT22;23374;52.758;6.872;2022-11-25T05:34:17;8.10;99.90
37530;DHT22;23374;52.758;6.872;2022-11-25T05:36:37;8.10;99.90
37530;DHT22;23374;52.758;6.872;2022-11-25T05:38:59;8.10;99.90
37530;DHT22;23374;52.758;6.872;2022-11-25T05:41:19;8.10;99.90
37530;DHT22;23374;52.758;6.872;2022-11-25T05:43:39;8.10;99.90
37530;DHT22;23374;52.758;6.872;2022-11-25T05:46:06;8.10;99.90
37530;DHT22;23374;52.758;6.872;2022-11-25T05:48:27;8.10;99.90
37530;DHT22;23374;52.758;6.872;2022-11-25T05:50:48;8.10;99.90
37530;DHT22;23374;52.758;6.872;2022-11-25T05:53:08;8.10;99.90
37530;DHT22;23374;52.758;6.872;2022-11-25T05:55:28;8.20;99.90
37530;DHT22;23374;52.758;6.872;2022-11-25T05:57:49;8.20;99.90
37530;DHT22;23374;52.758;6.872;2022-11-25T06:00:10;8.20;99.90
37530;DHT22;23374;52.758;6.872;2022-11-25T06:02:31;8.20;99.90
37530;DHT22;23374;52.758;6.872;2022-11-25T06:04:51;8.30;99.90
37530;DHT22;23374;52.758;6.872;2022-11-25T06:07:12;8.30;99.90
37530;DHT22;23374;52.758;6.872;2022-11-25T06:09:32;8.30;99.90
37530;DHT22;23374;52.758;6.872;2022-11-25T06:11:53;8.40;99.90
37530;DHT22;23374;52.758;6.872;2022-11-25T06:14:14;8.40;99.90
37530;DHT22;23374;52.758;6.872;2022-11-25T06:16:36;8.40;99.90
37530;DHT22;23374;52.758;6.872;2022-11-25T06:18:56;8.40;99.90
37530;DHT22;23374;52.758;6.872;2022-11-25T06:21:17;8.50;99.90
37530;DHT22;23374;52.758;6.872;2022-11-25T06:23:38;8.50;99.90
37530;DHT22;23374;52.758;6.872;2022-11-25T06:27:50;8.50;99.90
37530;DHT22;23374;52.758;6.872;2022-11-25T06:30:11;8.50;99.90
37530;DHT22;23374;52.758;6.872;2022-11-25T06:32:33;8.50;99.90
37530;DHT22;23374;52.758;6.872;2022-11-25T06:34:54;8.50;99.90
37530;DHT22;23374;52.758;6.872;2022-11-25T06:37:14;8.50;99.90
37530;DHT22;23374;52.758;6.872;2022-11-25T06:39:35;8.50;99.90
37530;DHT22;23374;52.758;6.872;2022-11-25T06:41:55;8.50;99.90
37530;DHT22;23374;52.758;6.872;2022-11-25T06:44:16;8.50;99.90
37530;DHT22;23374;52.758;6.872;2022-11-25T06:46:36;8.50;99.90
37530;DHT22;23374;52.758;6.872;2022-11-25T06:48:59;8.50;99.90
37530;DHT22;23374;52.758;6.872;2022-11-25T06:51:19;8.50;99.90
37530;DHT22;23374;52.758;6.872;2022-11-25T06:53:40;8.50;99.90
37530;DHT22;23374;52.758;6.872;2022-11-25T06:56:16;8.50;99.90
37530;DHT22;23374;52.758;6.872;2022-11-25T06:58:37;8.50;99.90
37530;DHT22;23374;52.758;6.872;2022-11-25T07:01:09;8.50;99.90
37530;DHT22;23374;52.758;6.872;2022-11-25T07:03:30;8.50;99.90
37530;DHT22;23374;52.758;6.872;2022-11-25T07:05:51;8.50;99.90
37530;DHT22;23374;52.758;6.872;2022-11-25T07:08:14;8.50;99.90
37530;DHT22;23374;52.758;6.872;2022-11-25T07:10:34;8.60;99.90
37530;DHT22;23374;52.758;6.872;2022-11-25T07:12:54;8.60;99.90
37530;DHT22;23374;52.758;6.872;2022-11-25T07:15:14;8.60;99.90
37530;DHT22;23374;52.758;6.872;2022-11-25T07:17:35;8.60;99.90
37530;DHT22;23374;52.758;6.872;2022-11-25T07:19:55;8.60;99.90
37530;DHT22;23374;52.758;6.872;2022-11-25T07:22:15;8.60;99.90
37530;DHT22;23374;52.758;6.872;2022-11-25T07:24:35;8.60;99.90
37530;DHT22;23374;52.758;6.872;2022-11-25T07:26:55;8.60;99.90
37530;DHT22;23374;52.758;6.872;2022-11-25T07:29:16;8.60;99.90
37530;DHT22;23374;52.758;6.872;2022-11-25T07:31:41;8.60;99.90
37530;DHT22;23374;52.758;6.872;2022-11-25T07:34:05;8.60;99.90
37530;DHT22;23374;52.758;6.872;2022-11-25T07:36:27;8.70;99.90
37530;DHT22;23374;52.758;6.872;2022-11-25T07:38:48;8.70;99.90
37530;DHT22;23374;52.758;6.872;2022-11-25T07:41:15;8.70;99.90
37530;DHT22;23374;52.758;6.872;2022-11-25T07:43:36;8.70;99.90
37530;DHT22;23374;52.758;6.872;2022-11-25T07:46:06;8.70;99.90
37530;DHT22;23374;52.758;6.872;2022-11-25T07:48:26;8.70;99.90
37530;DHT22;23374;52.758;6.872;2022-11-25T07:50:46;8.70;99.90
37530;DHT22;23374;52.758;6.872;2022-11-25T07:53:11;8.70;99.90
37530;DHT22;23374;52.758;6.872;2022-11-25T07:55:32;8.70;99.90
37530;DHT22;23374;52.758;6.872;2022-11-25T07:57:52;8.70;99.90
37530;DHT22;23374;52.758;6.872;2022-11-25T08:00:14;8.70;99.90
37530;DHT22;23374;52.758;6.872;2022-11-25T08:02:34;8.70;99.90
37530;DHT22;23374;52.758;6.872;2022-11-25T08:04:55;8.70;99.90
37530;DHT22;23374;52.758;6.872;2022-11-25T08:07:15;8.70;99.90
37530;DHT22;23374;52.758;6.872;2022-11-25T08:09:35;8.60;99.90
37530;DHT22;23374;52.758;6.872;2022-11-25T08:11:56;8.60;99.90
37530;DHT22;23374;52.758;6.872;2022-11-25T08:14:16;8.60;99.90
37530;DHT22;23374;52.758;6.872;2022-11-25T08:16:37;8.60;99.90
37530;DHT22;23374;52.758;6.872;2022-11-25T08:19:00;8.60;99.90
37530;DHT22;23374;52.758;6.872;2022-11-25T08:21:21;8.60;99.90
37530;DHT22;23374;52.758;6.872;2022-11-25T08:23:43;8.60;99.90
37530;DHT22;23374;52.758;6.872;2022-11-25T08:26:24;8.60;99.90
37530;DHT22;23374;52.758;6.872;2022-11-25T08:28:46;8.60;99.90
37530;DHT22;23374;52.758;6.872;2022-11-25T08:31:26;8.60;99.90
37530;DHT22;23374;52.758;6.872;2022-11-25T08:33:48;8.60;99.90
37530;DHT22;23374;52.758;6.872;2022-11-25T08:36:10;8.60;99.90
37530;DHT22;23374;52.758;6.872;2022-11-25T08:38:32;8.60;99.90
37530;DHT22;23374;52.758;6.872;2022-11-25T08:40:54;8.70;99.90
37530;DHT22;23374;52.758;6.872;2022-11-25T08:43:15;8.70;99.90
37530;DHT22;23374;52.758;6.872;2022-11-25T08:45:35;8.70;99.90
37530;DHT22;23374;52.758;6.872;2022-11-25T08:47:56;8.70;99.90
37530;DHT22;23374;52.758;6.872;2022-11-25T08:50:17;8.70;99.90
37530;DHT22;23374;52.758;6.872;2022-11-25T08:52:37;8.70;99.90
37530;DHT22;23374;52.758;6.872;2022-11-25T08:54:57;8.80;99.90
37530;DHT22;23374;52.758;6.872;2022-11-25T08:57:18;8.80;99.90
37530;DHT22;23374;52.758;6.872;2022-11-25T08:59:38;8.80;99.90
37530;DHT22;23374;52.758;6.872;2022-11-25T09:01:59;8.80;99.90
37530;DHT22;23374;52.758;6.872;2022-11-25T09:04:20;8.80;99.90
37530;DHT22;23374;52.758;6.872;2022-11-25T09:06:40;8.80;99.90
37530;DHT22;23374;52.758;6.872;2022-11-25T09:09:01;8.80;99.90
37530;DHT22;23374;52.758;6.872;2022-11-25T09:11:21;8.80;99.90
37530;DHT22;23374;52.758;6.872;2022-11-25T09:13:42;8.80;99.90
37530;DHT22;23374;52.758;6.872;2022-11-25T09:16:03;8.90;99.90
37530;DHT22;23374;52.758;6.872;2022-11-25T09:18:23;8.90;99.90
37530;DHT22;23374;52.758;6.872;2022-11-25T09:20:46;8.90;99.90
37530;DHT22;23374;52.758;6.872;2022-11-25T09:23:07;8.90;99.90
37530;DHT22;23374;52.758;6.872;2022-11-25T09:25:28;8.90;99.90
37530;DHT22;23374;52.758;6.872;2022-11-25T09:27:48;9.00;99.90
37530;DHT22;23374;52.758;6.872;2022-11-25T09:30:10;9.00;99.90
37530;DHT22;23374;52.758;6.872;2022-11-25T09:32:30;9.00;99.90
37530;DHT22;23374;52.758;6.872;2022-11-25T09:34:50;9.00;99.90
37530;DHT22;23374;52.758;6.872;2022-11-25T09:37:11;9.10;99.90
37530;DHT22;23374;52.758;6.872;2022-11-25T09:39:31;9.10;99.90
37530;DHT22;23374;52.758;6.872;2022-11-25T09:45:16;9.10;99.90
37530;DHT22;23374;52.758;6.872;2022-11-25T09:53:57;9.10;99.90
37530;DHT22;23374;52.758;6.872;2022-11-25T10:00:39;9.20;99.90
37530;DHT22;23374;52.758;6.872;2022-11-25T10:03:28;9.20;99.90
37530;DHT22;23374;52.758;6.872;2022-11-25T10:06:26;9.30;99.90
37530;DHT22;23374;52.758;6.872;2022-11-25T10:08:50;9.30;99.90
37530;DHT22;23374;52.758;6.872;2022-11-25T10:12:46;9.30;99.90
37530;DHT22;23374;52.758;6.872;2022-11-25T10:15:29;9.40;99.90
37530;DHT22;23374;52.758;6.872;2022-11-25T10:17:56;9.40;99.90
37530;DHT22;23374;52.758;6.872;2022-11-25T10:20:34;9.50;99.90
37530;DHT22;23374;52.758;6.872;2022-11-25T10:23:10;9.50;99.90
37530;DHT22;23374;52.758;6.872;2022-11-25T10:25:55;9.60;99.90
37530;DHT22;23374;52.758;6.872;2022-11-25T10:28:40;9.60;99.90
37530;DHT22;23374;52.758;6.872;2022-11-25T10:31:18;9.60;99.90
37530;DHT22;23374;52.758;6.872;2022-11-25T10:34:44;9.70;99.90
37530;DHT22;23374;52.758;6.872;2022-11-25T10:37:22;9.70;99.90
37530;DHT22;23374;52.758;6.872;2022-11-25T10:39:44;9.70;99.90
37530;DHT22;23374;52.758;6.872;2022-11-25T10:42:21;9.80;99.90
37530;DHT22;23374;52.758;6.872;2022-11-25T10:44:41;9.80;99.90
37530;DHT22;23374;52.758;6.872;2022-11-25T10:50:43;9.80;99.90
37530;DHT22;23374;52.758;6.872;2022-11-25T10:53:24;9.90;99.90
37530;DHT22;23374;52.758;6.872;2022-11-25T10:57:36;9.90;99.90
37530;DHT22;23374;52.758;6.872;2022-11-25T10:59:59;10.00;99.90
37530;DHT22;23374;52.758;6.872;2022-11-25T11:02:39;10.00;99.40
37530;DHT22;23374;52.758;6.872;2022-11-25T11:05:26;10.00;54.00
37530;DHT22;23374;52.758;6.872;2022-11-25T11:08:07;10.00;55.40
37530;DHT22;23374;52.758;6.872;2022-11-25T11:10:29;10.10;64.00
37530;DHT22;23374;52.758;6.872;2022-11-25T11:13:03;10.10;95.40
37530;DHT22;23374;52.758;6.872;2022-11-25T11:15:30;10.10;71.80
37530;DHT22;23374;52.758;6.872;2022-11-25T11:17:53;10.10;36.20
37530;DHT22;23374;52.758;6.872;2022-11-25T11:20:25;10.20;38.30
37530;DHT22;23374;52.758;6.872;2022-11-25T11:23:48;10.20;20.30
37530;DHT22;23374;52.758;6.872;2022-11-25T11:26:23;10.20;27.00
37530;DHT22;23374;52.758;6.872;2022-11-25T11:28:44;10.30;31.40
37530;DHT22;23374;52.758;6.872;2022-11-25T11:31:30;10.30;44.80
37530;DHT22;23374;52.758;6.872;2022-11-25T11:37:05;10.30;1.00
37530;DHT22;23374;52.758;6.872;2022-11-25T11:40:12;10.40;1.00
37530;DHT22;23374;52.758;6.872;2022-11-25T11:44:32;10.40;1.00
37530;DHT22;23374;52.758;6.872;2022-11-25T11:48:51;10.40;1.00
37530;DHT22;23374;52.758;6.872;2022-11-25T12:02:51;10.60;1.00
37530;DHT22;23374;52.758;6.872;2022-11-25T12:05:18;10.70;1.00
37530;DHT22;23374;52.758;6.872;2022-11-25T12:10:43;10.70;1.00
37530;DHT22;23374;52.758;6.872;2022-11-25T12:13:30;10.80;1.00
37530;DHT22;23374;52.758;6.872;2022-11-25T12:16:19;10.80;1.00
37530;DHT22;23374;52.758;6.872;2022-11-25T12:19:02;10.80;1.00
37530;DHT22;23374;52.758;6.872;2022-11-25T12:24:33;10.90;1.00
37530;DHT22;23374;52.758;6.872;2022-11-25T12:27:22;10.90;1.00
37530;DHT22;23374;52.758;6.872;2022-11-25T12:29:56;10.90;1.00
37530;DHT22;23374;52.758;6.872;2022-11-25T12:33:15;11.00;99.90
37530;DHT22;23374;52.758;6.872;2022-11-25T12:36:37;11.00;99.90
37530;DHT22;23374;52.758;6.872;2022-11-25T12:39:17;11.00;99.90
37530;DHT22;23374;52.758;6.872;2022-11-25T12:41:46;11.00;1.00
37530;DHT22;23374;52.758;6.872;2022-11-25T12:44:24;11.00;1.00
37530;DHT22;23374;52.758;6.872;2022-11-25T12:46:48;11.00;1.00
37530;DHT22;23374;52.758;6.872;2022-11-25T12:49:27;11.00;1.00
37530;DHT22;23374;52.758;6.872;2022-11-25T12:55:25;11.00;1.00
37530;DHT22;23374;52.758;6.872;2022-11-25T12:58:40;11.00;1.00
37530;DHT22;23374;52.758;6.872;2022-11-25T13:01:41;11.10;1.00
37530;DHT22;23374;52.758;6.872;2022-11-25T13:04:31;11.10;1.00
37530;DHT22;23374;52.758;6.872;2022-11-25T13:30:02;11.30;99.90
37530;DHT22;23374;52.758;6.872;2022-11-25T13:32:41;11.10;1.00
37530;DHT22;23374;52.758;6.872;2022-11-25T13:35:30;11.10;1.00
37530;DHT22;23374;52.758;6.872;2022-11-25T13:37:51;11.10;1.00
37530;DHT22;23374;52.758;6.872;2022-11-25T13:40:36;11.10;1.00
37530;DHT22;23374;52.758;6.872;2022-11-25T13:42:57;11.10;1.00
37530;DHT22;23374;52.758;6.872;2022-11-25T13:48:28;11.10;1.00
37530;DHT22;23374;52.758;6.872;2022-11-25T13:51:03;11.10;1.00
37530;DHT22;23374;52.758;6.872;2022-11-25T13:53:33;11.10;1.00
37530;DHT22;23374;52.758;6.872;2022-11-25T13:56:31;11.10;1.00
37530;DHT22;23374;52.758;6.872;2022-11-25T14:06:29;11.10;1.00
37530;DHT22;23374;52.758;6.872;2022-11-25T14:15:13;11.10;1.00
37530;DHT22;23374;52.758;6.872;2022-11-25T14:24:18;10.80;1.00
37530;DHT22;23374;52.758;6.872;2022-11-25T14:26:40;10.80;1.00
37530;DHT22;23374;52.758;6.872;2022-11-25T14:35:43;10.80;1.00
37530;DHT22;23374;52.758;6.872;2022-11-25T14:38:46;10.80;1.00
37530;DHT22;23374;52.758;6.872;2022-11-25T14:45:46;10.80;1.00
37530;DHT22;23374;52.758;6.872;2022-11-25T14:48:20;10.80;1.00
37530;DHT22;23374;52.758;6.872;2022-11-25T14:51:06;10.80;1.00
37530;DHT22;23374;52.758;6.872;2022-11-25T14:53:28;10.90;1.00
37530;DHT22;23374;52.758;6.872;2022-11-25T14:55:49;10.90;1.00
37530;DHT22;23374;52.758;6.872;2022-11-25T14:58:11;10.90;1.00
37530;DHT22;23374;52.758;6.872;2022-11-25T15:00:32;10.90;1.00
37530;DHT22;23374;52.758;6.872;2022-11-25T15:02:59;10.80;1.00
37530;DHT22;23374;52.758;6.872;2022-11-25T15:05:31;10.80;1.00
37530;DHT22;23374;52.758;6.872;2022-11-25T15:08:39;10.80;1.00
37530;DHT22;23374;52.758;6.872;2022-11-25T15:11:01;10.70;1.00
37530;DHT22;23374;52.758;6.872;2022-11-25T15:13:52;10.70;1.00
37530;DHT22;23374;52.758;6.872;2022-11-25T15:16:38;10.70;1.00
37530;DHT22;23374;52.758;6.872;2022-11-25T15:19:04;10.60;1.00
37530;DHT22;23374;52.758;6.872;2022-11-25T15:21:34;10.50;1.00
37530;DHT22;23374;52.758;6.872;2022-11-25T15:23:56;10.50;1.00
37530;DHT22;23374;52.758;6.872;2022-11-25T15:26:23;10.40;1.00
37530;DHT22;23374;52.758;6.872;2022-11-25T15:28:44;10.40;1.00
37530;DHT22;23374;52.758;6.872;2022-11-25T15:31:15;10.30;1.00
37530;DHT22;23374;52.758;6.872;2022-11-25T15:33:36;10.30;1.00
37530;DHT22;23374;52.758;6.872;2022-11-25T15:35:57;10.20;1.00
37530;DHT22;23374;52.758;6.872;2022-11-25T15:38:42;10.20;1.00
37530;DHT22;23374;52.758;6.872;2022-11-25T15:41:04;10.20;1.00
37530;DHT22;23374;52.758;6.872;2022-11-25T15:43:30;10.20;1.00
37530;DHT22;23374;52.758;6.872;2022-11-25T15:45:55;10.20;1.00
37530;DHT22;23374;52.758;6.872;2022-11-25T15:48:27;10.20;1.00
37530;DHT22;23374;52.758;6.872;2022-11-25T15:50:49;10.10;1.00
37530;DHT22;23374;52.758;6.872;2022-11-25T15:53:27;10.10;1.00
37530;DHT22;23374;52.758;6.872;2022-11-25T15:55:47;10.10;1.00
37530;DHT22;23374;52.758;6.872;2022-11-25T15:58:23;10.10;1.00
37530;DHT22;23374;52.758;6.872;2022-11-25T16:01:21;10.00;1.00
37530;DHT22;23374;52.758;6.872;2022-11-25T16:03:46;10.00;1.00
37530;DHT22;23374;52.758;6.872;2022-11-25T16:06:36;10.00;9.70
37530;DHT22;23374;52.758;6.872;2022-11-25T16:09:20;10.00;43.90
37530;DHT22;23374;52.758;6.872;2022-11-25T16:11:44;10.00;53.30
37530;DHT22;23374;52.758;6.872;2022-11-25T16:14:27;10.00;71.60
37530;DHT22;23374;52.758;6.872;2022-11-25T16:16:48;9.90;99.90
37530;DHT22;23374;52.758;6.872;2022-11-25T16:19:18;9.90;99.90
37530;DHT22;23374;52.758;6.872;2022-11-25T16:21:53;9.90;99.90
37530;DHT22;23374;52.758;6.872;2022-11-25T16:24:35;9.90;99.90
37530;DHT22;23374;52.758;6.872;2022-11-25T16:27:03;9.90;99.90
37530;DHT22;23374;52.758;6.872;2022-11-25T16:30:22;9.90;99.90
37530;DHT22;23374;52.758;6.872;2022-11-25T16:32:42;9.90;99.90
37530;DHT22;23374;52.758;6.872;2022-11-25T16:35:19;9.90;99.90
37530;DHT22;23374;52.758;6.872;2022-11-25T16:37:41;9.90;99.90
37530;DHT22;23374;52.758;6.872;2022-11-25T16:40:02;9.90;99.90
37530;DHT22;23374;52.758;6.872;2022-11-25T16:42:22;9.90;99.90
37530;DHT22;23374;52.758;6.872;2022-11-25T16:44:47;9.80;99.90
37530;DHT22;23374;52.758;6.872;2022-11-25T16:47:09;9.80;99.90
37530;DHT22;23374;52.758;6.872;2022-11-25T16:49:30;9.80;99.90
37530;DHT22;23374;52.758;6.872;2022-11-25T16:51:51;9.70;99.90
37530;DHT22;23374;52.758;6.872;2022-11-25T16:54:12;9.70;99.90
37530;DHT22;23374;52.758;6.872;2022-11-25T16:56:35;9.60;99.90
37530;DHT22;23374;52.758;6.872;2022-11-25T16:58:56;9.60;99.90
37530;DHT22;23374;52.758;6.872;2022-11-25T17:01:18;9.50;99.90
37530;DHT22;23374;52.758;6.872;2022-11-25T17:03:39;9.40;99.90
37530;DHT22;23374;52.758;6.872;2022-11-25T17:05:59;9.40;99.90
37530;DHT22;23374;52.758;6.872;2022-11-25T17:08:21;9.30;99.90
37530;DHT22;23374;52.758;6.872;2022-11-25T17:10:42;9.30;99.90
37530;DHT22;23374;52.758;6.872;2022-11-25T17:13:04;9.20;99.90
37530;DHT22;23374;52.758;6.872;2022-11-25T17:15:33;9.20;99.90
37530;DHT22;23374;52.758;6.872;2022-11-25T17:17:54;9.20;99.90
37530;DHT22;23374;52.758;6.872;2022-11-25T17:20:22;9.10;99.90
37530;DHT22;23374;52.758;6.872;2022-11-25T17:22:43;9.10;99.90
37530;DHT22;23374;52.758;6.872;2022-11-25T17:25:04;9.00;99.90
37530;DHT22;23374;52.758;6.872;2022-11-25T17:27:29;9.00;99.90
37530;DHT22;23374;52.758;6.872;2022-11-25T17:29:50;9.00;99.90
37530;DHT22;23374;52.758;6.872;2022-11-25T17:32:12;8.90;99.90
37530;DHT22;23374;52.758;6.872;2022-11-25T17:34:33;8.90;99.90
37530;DHT22;23374;52.758;6.872;2022-11-25T17:36:53;8.90;99.90
37530;DHT22;23374;52.758;6.872;2022-11-25T17:39:14;8.80;99.90